createdAt,value
2022-10-19T00:01:15.248Z,7.03
2022-10-19T00:03:43.311Z,8.20
2022-10-19T00:06:27.101Z,9.07
2022-10-19T00:09:04.488Z,8.23
2022-10-19T00:11:33.013Z,8.60
2022-10-19T00:14:01.092Z,7.87
2022-10-19T00:16:31.805Z,8.07
2022-10-19T00:19:03.350Z,7.80
2022-10-19T00:21:31.359Z,8.27
2022-10-19T00:23:59.325Z,7.80
2022-10-19T00:26:27.712Z,7.53
2022-10-19T00:28:57.321Z,7.07
2022-10-19T00:31:25.538Z,6.90
2022-10-19T00:33:55.102Z,8.10
2022-10-19T00:36:29.434Z,8.03
2022-10-19T00:38:58.415Z,7.33
2022-10-19T00:41:31.351Z,7.90
2022-10-19T00:44:03.893Z,7.47
2022-10-19T00:46:34.874Z,8.03
2022-10-19T00:49:10.869Z,8.93
2022-10-19T00:51:42.521Z,7.50
2022-10-19T00:54:10.153Z,7.83
2022-10-19T00:56:41.294Z,8.03
2022-10-19T00:59:10.053Z,7.20
2022-10-19T01:01:37.381Z,8.60
2022-10-19T01:04:05.050Z,8.53
2022-10-19T01:06:33.359Z,8.97
2022-10-19T01:09:00.242Z,8.70
2022-10-19T01:11:59.203Z,8.77
2022-10-19T01:14:47.596Z,8.17
2022-10-19T01:17:42.196Z,7.97
2022-10-19T01:20:47.354Z,7.40
2022-10-19T01:23:30.081Z,7.43
2022-10-19T01:26:02.765Z,7.70
2022-10-19T01:28:51.331Z,7.53
2022-10-19T01:31:32.522Z,7.93
2022-10-19T01:34:22.629Z,7.83
2022-10-19T01:37:18.259Z,8.73
2022-10-19T01:39:52.440Z,8.23
2022-10-19T01:42:36.619Z,9.23
2022-10-19T01:45:31.097Z,8.17
2022-10-19T01:48:12.449Z,8.07
2022-10-19T01:50:46.012Z,7.97
2022-10-19T01:53:14.793Z,8.20
2022-10-19T01:55:45.772Z,8.57
2022-10-19T01:58:17.565Z,7.37
2022-10-19T02:00:48.610Z,7.40
2022-10-19T02:03:16.505Z,7.97
2022-10-19T02:05:45.845Z,7.47
2022-10-19T02:08:18.140Z,7.53
2022-10-19T02:10:46.756Z,9.30
2022-10-19T02:13:16.254Z,10.00
2022-10-19T02:16:08.344Z,8.87
2022-10-19T02:18:40.791Z,8.90
2022-10-19T02:21:07.868Z,8.33
2022-10-19T02:23:35.454Z,8.67
2022-10-19T02:26:02.571Z,7.63
2022-10-19T02:28:31.283Z,7.53
2022-10-19T02:30:59.460Z,7.93
2022-10-19T02:33:28.252Z,7.53
2022-10-19T02:35:55.428Z,7.77
2022-10-19T02:38:24.227Z,7.40
2022-10-19T02:41:16.377Z,8.70
2022-10-19T02:43:48.082Z,8.23
2022-10-19T02:46:18.634Z,8.37
2022-10-19T02:48:46.702Z,9.87
2022-10-19T02:51:37.009Z,10.00
2022-10-19T02:54:07.063Z,9.77
2022-10-19T02:56:35.395Z,9.87
2022-10-19T02:59:03.538Z,9.60
2022-10-19T03:01:30.676Z,8.63
2022-10-19T03:03:57.729Z,8.97
2022-10-19T03:06:24.975Z,8.50
2022-10-19T03:08:54.008Z,8.07
2022-10-19T03:11:21.107Z,8.27
2022-10-19T03:16:19.769Z,7.70
2022-10-19T03:18:48.855Z,8.47
2022-10-19T03:21:16.214Z,8.70
2022-10-19T03:23:43.252Z,7.83
2022-10-19T03:26:14.396Z,8.30
2022-10-19T03:28:41.618Z,7.83
2022-10-19T03:31:08.945Z,8.63
2022-10-19T03:33:37.176Z,8.97
2022-10-19T03:36:38.075Z,8.40
2022-10-19T03:39:08.250Z,8.57
2022-10-19T03:41:37.677Z,6.97
2022-10-19T03:44:05.853Z,7.83
2022-10-19T03:46:33.285Z,6.77
2022-10-19T03:49:01.457Z,6.60
2022-10-19T03:51:33.188Z,5.90
2022-10-19T03:54:06.694Z,6.23
2022-10-19T03:56:34.892Z,8.30
2022-10-19T03:59:03.195Z,6.70
2022-10-19T04:01:39.748Z,6.60
2022-10-19T04:04:11.195Z,7.17
2022-10-19T04:06:39.876Z,5.67
2022-10-19T04:09:08.313Z,5.93
2022-10-19T04:11:35.722Z,5.57
2022-10-19T04:14:02.819Z,5.90
2022-10-19T04:16:31.496Z,6.33
2022-10-19T04:18:59.774Z,5.50
2022-10-19T04:21:27.135Z,5.00
2022-10-19T04:24:05.856Z,5.90
2022-10-19T04:26:34.457Z,5.07
2022-10-19T04:29:01.901Z,5.10
2022-10-19T04:31:29.082Z,6.03
2022-10-19T04:33:57.183Z,5.80
2022-10-19T04:36:24.616Z,7.60
2022-10-19T04:38:52.067Z,7.80
2022-10-19T04:41:21.727Z,9.27
2022-10-19T04:43:50.450Z,9.63
2022-10-19T04:46:19.644Z,9.50
2022-10-19T04:48:48.744Z,10.20
2022-10-19T04:51:16.748Z,8.20
2022-10-19T04:53:44.902Z,8.27
2022-10-19T04:56:19.006Z,6.13
2022-10-19T04:58:46.651Z,6.47
2022-10-19T05:01:16.812Z,6.63
2022-10-19T05:03:45.202Z,6.10
2022-10-19T05:06:14.143Z,7.03
2022-10-19T05:08:41.601Z,6.80
2022-10-19T05:11:11.772Z,7.17
2022-10-19T05:13:39.626Z,6.40
2022-10-19T05:16:11.219Z,7.83
2022-10-19T05:18:38.827Z,8.17
2022-10-19T05:21:11.753Z,9.00
2022-10-19T05:23:39.460Z,9.33
2022-10-19T05:26:12.581Z,9.33
2022-10-19T05:28:39.783Z,8.37
2022-10-19T05:31:11.847Z,7.90
2022-10-19T05:33:39.846Z,8.47
2022-10-19T05:36:27.190Z,9.53
2022-10-19T05:38:57.463Z,14.53
2022-10-19T05:41:26.397Z,12.90
2022-10-19T05:43:56.830Z,10.77
2022-10-19T05:46:27.830Z,9.47
2022-10-19T05:48:56.820Z,7.10
2022-10-19T05:51:25.338Z,8.60
2022-10-19T05:53:53.940Z,8.17
2022-10-19T05:56:24.191Z,7.43
2022-10-19T05:58:52.521Z,7.63
2022-10-19T06:01:20.545Z,7.87
2022-10-19T06:03:52.184Z,7.63
2022-10-19T06:06:21.623Z,8.13
2022-10-19T06:08:49.899Z,7.23
2022-10-19T06:11:23.047Z,8.73
2022-10-19T06:13:51.676Z,7.40
2022-10-19T06:16:20.995Z,7.50
2022-10-19T06:18:49.346Z,6.40
2022-10-19T06:21:19.183Z,6.63
2022-10-19T06:23:53.382Z,7.20
2022-10-19T06:26:22.812Z,9.10
2022-10-19T06:28:52.505Z,6.67
2022-10-19T06:31:19.572Z,6.37
2022-10-19T06:33:49.205Z,6.73
2022-10-19T06:36:22.167Z,6.73
2022-10-19T06:38:50.125Z,7.40
2022-10-19T06:41:19.633Z,7.27
2022-10-19T06:43:57.524Z,7.43
2022-10-19T06:46:27.556Z,6.53
2022-10-19T06:49:03.400Z,7.60
2022-10-19T06:51:32.746Z,7.40
2022-10-19T06:54:00.659Z,7.10
2022-10-19T06:56:30.923Z,7.90
2022-10-19T06:58:58.948Z,6.67
2022-10-19T07:01:26.299Z,7.50
2022-10-19T07:03:55.841Z,8.33
2022-10-19T07:06:24.152Z,6.77
2022-10-19T07:09:04.875Z,7.60
2022-10-19T07:11:33.349Z,7.73
2022-10-19T07:14:01.181Z,7.23
2022-10-19T07:16:29.552Z,6.97
2022-10-19T07:18:56.534Z,6.67
2022-10-19T07:21:27.129Z,7.37
2022-10-19T07:23:54.574Z,7.37
2022-10-19T07:26:27.018Z,7.53
2022-10-19T07:28:57.389Z,9.03
2022-10-19T07:31:26.673Z,9.97
2022-10-19T07:33:54.925Z,8.23
2022-10-19T07:36:22.367Z,8.83
2022-10-19T07:38:51.506Z,8.10
2022-10-19T07:41:22.950Z,7.40
2022-10-19T07:43:51.321Z,6.53
2022-10-19T07:46:24.568Z,8.10
2022-10-19T07:48:51.926Z,8.10
2022-10-19T07:51:20.361Z,7.97
2022-10-19T07:56:32.996Z,7.30
2022-10-19T07:59:01.898Z,5.93
2022-10-19T08:01:32.639Z,6.07
2022-10-19T08:06:50.841Z,5.37
2022-10-19T08:09:47.241Z,5.03
2022-10-19T08:12:07.162Z,4.57
2022-10-19T08:14:36.394Z,4.67
2022-10-19T08:17:03.357Z,5.40
2022-10-19T08:19:35.055Z,6.73
2022-10-19T08:22:09.210Z,11.43
2022-10-19T08:24:40.279Z,6.83
2022-10-19T08:27:08.796Z,6.40
2022-10-19T08:29:39.138Z,9.20
2022-10-19T08:32:11.772Z,5.13
2022-10-19T08:34:39.953Z,4.67
2022-10-19T08:37:19.935Z,4.60
2022-10-19T08:39:56.952Z,3.97
2022-10-19T08:42:32.116Z,4.57
2022-10-19T08:45:09.024Z,6.23
2022-10-19T08:47:53.982Z,7.07
2022-10-19T08:50:42.489Z,4.90
2022-10-19T08:53:17.293Z,5.40
2022-10-19T08:56:07.721Z,4.93
2022-10-19T08:59:00.983Z,4.87
2022-10-19T09:01:49.030Z,4.07
2022-10-19T09:04:59.557Z,4.40
2022-10-19T09:07:55.595Z,4.10
2022-10-19T09:10:34.861Z,4.60
2022-10-19T09:13:12.115Z,4.03
2022-10-19T09:15:47.019Z,4.50
2022-10-19T09:18:26.288Z,5.43
2022-10-19T09:21:11.135Z,4.33
2022-10-19T09:23:43.111Z,3.13
2022-10-19T09:26:23.117Z,3.40
2022-10-19T09:29:34.787Z,3.27
2022-10-19T09:32:05.468Z,3.10
2022-10-19T09:34:41.749Z,2.93
2022-10-19T09:37:08.772Z,3.70
2022-10-19T09:39:35.666Z,3.60
2022-10-19T09:42:36.979Z,3.10
2022-10-19T09:45:21.020Z,3.23
2022-10-19T09:47:48.865Z,3.60
2022-10-19T09:50:19.671Z,3.10
2022-10-19T09:52:55.934Z,3.80
2022-10-19T09:55:36.313Z,2.67
2022-10-19T09:58:13.179Z,3.17
2022-10-19T10:00:43.328Z,3.20
2022-10-19T10:03:23.684Z,4.60
2022-10-19T10:05:51.803Z,4.30
2022-10-19T10:08:24.002Z,3.30
2022-10-19T10:11:09.117Z,3.47
2022-10-19T10:13:50.412Z,6.40
2022-10-19T10:16:21.097Z,3.23
2022-10-19T10:18:58.432Z,3.33
2022-10-19T10:21:32.954Z,4.13
2022-10-19T10:24:09.068Z,4.17
2022-10-19T10:27:04.133Z,5.10
2022-10-19T10:29:36.664Z,3.77
2022-10-19T10:32:19.985Z,14.57
2022-10-19T10:35:08.133Z,3.90
2022-10-19T10:37:39.195Z,2.73
2022-10-19T10:40:25.101Z,3.17
2022-10-19T10:42:54.690Z,3.20
2022-10-19T10:45:45.235Z,3.93
2022-10-19T10:48:53.491Z,3.20
2022-10-19T10:51:49.242Z,3.17
2022-10-19T10:54:20.786Z,3.93
2022-10-19T10:57:20.859Z,3.67
2022-10-19T10:59:59.814Z,10.47
2022-10-19T11:02:50.333Z,4.60
2022-10-19T11:05:31.102Z,3.53
2022-10-19T11:08:19.364Z,2.80
2022-10-19T11:11:01.865Z,3.30
2022-10-19T11:13:41.141Z,4.43
2022-10-19T11:16:18.434Z,2.70
2022-10-19T11:22:05.210Z,2.97
2022-10-19T11:24:35.334Z,2.47
2022-10-19T11:27:22.172Z,4.60
2022-10-19T11:29:52.701Z,3.70
2022-10-19T11:32:35.025Z,2.90
2022-10-19T11:35:21.904Z,3.30
2022-10-19T11:38:20.032Z,2.50
2022-10-19T11:41:19.313Z,2.17
2022-10-19T11:44:17.414Z,1.80
2022-10-19T11:46:58.478Z,2.10
2022-10-19T11:49:42.964Z,1.87
2022-10-19T11:52:17.234Z,2.07
2022-10-19T11:54:56.893Z,1.50
2022-10-19T11:57:39.445Z,2.00
2022-10-19T12:00:21.089Z,1.90
2022-10-19T12:03:30.368Z,2.07
2022-10-19T12:06:14.817Z,1.97
2022-10-19T12:09:25.456Z,1.50
2022-10-19T12:12:20.089Z,1.70
2022-10-19T12:14:54.210Z,1.80
2022-10-19T12:17:28.117Z,1.60
2022-10-19T12:20:00.639Z,1.80
2022-10-19T12:22:34.106Z,2.10
2022-10-19T12:25:01.976Z,1.80
2022-10-19T12:27:35.959Z,2.07
2022-10-19T12:30:17.100Z,1.73
2022-10-19T12:33:28.144Z,1.77
2022-10-19T12:36:14.425Z,1.70
2022-10-19T12:39:09.084Z,1.50
2022-10-19T12:42:04.928Z,1.90
2022-10-19T12:45:00.705Z,1.73
2022-10-19T12:47:27.648Z,1.90
2022-10-19T12:49:55.719Z,1.93
2022-10-19T12:52:43.014Z,1.97
2022-10-19T12:55:34.825Z,1.70
2022-10-19T12:58:06.901Z,2.00
2022-10-19T13:00:37.837Z,1.63
2022-10-19T13:03:16.425Z,2.13
2022-10-19T13:05:57.472Z,1.90
2022-10-19T13:08:34.879Z,1.90
2022-10-19T13:11:17.774Z,2.10
2022-10-19T13:14:28.552Z,2.20
2022-10-19T13:17:01.164Z,1.87
2022-10-19T13:19:28.774Z,2.40
2022-10-19T13:22:04.420Z,2.37
2022-10-19T13:24:35.359Z,2.70
2022-10-19T13:27:02.312Z,1.90
2022-10-19T13:29:43.005Z,2.30
2022-10-19T13:32:35.458Z,1.77
2022-10-19T13:35:29.278Z,2.13
2022-10-19T13:38:10.277Z,1.80
2022-10-19T13:40:49.392Z,2.00
2022-10-19T13:43:30.454Z,2.00
2022-10-19T13:46:09.999Z,2.10
2022-10-19T13:49:02.375Z,2.13
2022-10-19T13:52:00.261Z,2.17
2022-10-19T13:58:53.398Z,1.80
2022-10-19T14:01:48.048Z,1.60
2022-10-19T14:04:44.923Z,2.10
2022-10-19T14:07:51.197Z,2.33
2022-10-19T14:10:32.666Z,1.87
2022-10-19T14:13:01.938Z,1.87
2022-10-19T14:15:31.660Z,2.60
2022-10-19T14:18:03.810Z,2.20
2022-10-19T14:20:38.877Z,2.43
2022-10-19T14:23:29.682Z,1.80
2022-10-19T14:26:22.712Z,1.73
2022-10-19T14:29:00.128Z,2.20
2022-10-19T14:31:36.395Z,2.20
2022-10-19T14:34:08.006Z,1.90
2022-10-19T14:36:50.229Z,2.00
2022-10-19T14:39:38.996Z,1.87
2022-10-19T14:42:09.866Z,1.80
2022-10-19T14:44:41.607Z,2.17
2022-10-19T14:47:23.596Z,2.00
2022-10-19T14:49:50.896Z,2.20
2022-10-19T14:52:48.092Z,1.80
2022-10-19T14:55:18.158Z,1.90
2022-10-19T14:57:58.705Z,2.20
2022-10-19T15:00:35.908Z,2.37
2022-10-19T15:03:07.591Z,3.00
2022-10-19T15:05:40.986Z,3.20
2022-10-19T15:08:21.927Z,2.23
2022-10-19T15:10:51.409Z,2.00
2022-10-19T15:13:31.765Z,1.57
2022-10-19T15:15:58.792Z,2.17
2022-10-19T15:18:48.185Z,2.00
2022-10-19T15:21:19.626Z,1.87
2022-10-19T15:23:51.580Z,2.07
2022-10-19T15:26:25.944Z,2.17
2022-10-19T15:28:57.017Z,1.90
2022-10-19T15:31:29.287Z,2.20
2022-10-19T15:33:58.718Z,2.07
2022-10-19T15:36:27.082Z,1.83
2022-10-19T15:39:18.073Z,2.20
2022-10-19T15:41:51.708Z,2.40
2022-10-19T15:44:42.325Z,2.93
2022-10-19T15:47:15.465Z,2.30
2022-10-19T15:49:44.916Z,2.40
2022-10-19T15:52:21.833Z,2.20
2022-10-19T15:54:50.229Z,2.23
2022-10-19T15:57:35.607Z,2.43
2022-10-19T16:00:14.462Z,2.50
2022-10-19T16:02:42.473Z,2.63
2022-10-19T16:05:14.016Z,2.50
2022-10-19T16:07:41.534Z,2.50
2022-10-19T16:10:17.537Z,2.63
2022-10-19T16:12:45.193Z,2.73
2022-10-19T16:15:23.462Z,2.40
2022-10-19T16:17:54.560Z,2.73
2022-10-19T16:20:22.586Z,2.67
2022-10-19T16:22:49.799Z,3.10
2022-10-19T16:25:18.969Z,2.90
2022-10-19T16:27:45.982Z,2.40
2022-10-19T16:30:20.125Z,2.77
2022-10-19T16:32:51.136Z,2.53
2022-10-19T16:35:18.038Z,2.63
2022-10-19T16:37:44.945Z,2.93
2022-10-19T16:40:13.152Z,2.77
2022-10-19T16:42:40.121Z,3.20
2022-10-19T16:45:07.667Z,2.73
2022-10-19T16:47:34.686Z,2.77
2022-10-19T16:50:04.347Z,3.70
2022-10-19T16:52:33.258Z,3.03
2022-10-19T16:55:00.559Z,3.33
2022-10-19T16:57:27.474Z,2.77
2022-10-19T16:59:54.498Z,2.50
2022-10-19T17:02:24.511Z,3.30
2022-10-19T17:04:51.747Z,2.67
2022-10-19T17:07:19.681Z,2.80
2022-10-19T17:09:47.929Z,2.77
2022-10-19T17:12:16.824Z,2.67
2022-10-19T17:14:45.051Z,3.00
2022-10-19T17:17:14.512Z,3.00
2022-10-19T17:19:41.415Z,2.50
2022-10-19T17:22:08.468Z,2.40
2022-10-19T17:24:37.350Z,2.93
2022-10-19T17:27:04.715Z,2.90
2022-10-19T17:29:31.628Z,3.60
2022-10-19T17:32:00.344Z,6.63
2022-10-19T17:34:27.480Z,7.37
2022-10-19T17:36:54.955Z,4.20
2022-10-19T17:39:27.198Z,6.00
2022-10-19T17:42:01.699Z,2.83
2022-10-19T17:44:30.671Z,2.40
2022-10-19T17:46:59.140Z,3.43
2022-10-19T17:49:26.106Z,3.80
2022-10-19T17:51:53.829Z,3.40
2022-10-19T17:54:20.890Z,3.30
2022-10-19T17:56:48.004Z,2.97
2022-10-19T17:59:14.940Z,3.00
2022-10-19T18:01:42.261Z,3.67
2022-10-19T18:04:09.120Z,2.60
2022-10-19T18:06:39.700Z,2.97
2022-10-19T18:09:15.164Z,3.37
2022-10-19T18:11:45.175Z,2.70
2022-10-19T18:14:13.782Z,2.40
2022-10-19T18:17:01.176Z,2.80
2022-10-19T18:19:28.065Z,2.77
2022-10-19T18:21:56.362Z,2.80
2022-10-19T18:24:24.674Z,3.40
2022-10-19T18:26:52.021Z,2.90
2022-10-19T18:29:22.353Z,2.90
2022-10-19T18:31:57.676Z,2.83
2022-10-19T18:34:37.642Z,2.70
2022-10-19T18:37:07.422Z,2.80
2022-10-19T18:39:34.493Z,3.00
2022-10-19T18:42:01.416Z,2.80
2022-10-19T18:44:30.398Z,2.93
2022-10-19T18:47:01.093Z,2.90
2022-10-19T18:49:30.579Z,3.43
2022-10-19T18:51:58.538Z,3.63
2022-10-19T18:54:27.903Z,4.83
2022-10-19T18:57:00.243Z,3.00
2022-10-19T19:01:54.898Z,3.17
2022-10-19T19:04:29.921Z,3.60
2022-10-19T19:07:13.546Z,3.67
2022-10-19T19:09:40.606Z,3.77
2022-10-19T19:12:07.512Z,3.93
2022-10-19T19:14:34.541Z,3.53
2022-10-19T19:17:01.577Z,3.80
2022-10-19T19:19:29.819Z,3.33
2022-10-19T19:21:56.865Z,4.47
2022-10-19T19:24:28.036Z,3.50
2022-10-19T19:26:55.339Z,3.80
2022-10-19T19:29:22.339Z,3.63
2022-10-19T19:31:50.141Z,4.77
2022-10-19T19:34:17.593Z,4.30
2022-10-19T19:36:49.308Z,4.03
2022-10-19T19:39:21.820Z,4.30
2022-10-19T19:41:50.007Z,3.67
2022-10-19T19:44:19.121Z,4.10
2022-10-19T19:46:47.402Z,3.50
2022-10-19T19:49:15.862Z,3.63
2022-10-19T19:51:43.476Z,3.10
2022-10-19T19:54:11.478Z,3.27
2022-10-19T19:56:39.776Z,2.93
2022-10-19T19:59:06.664Z,3.20
2022-10-19T20:01:33.943Z,3.03
2022-10-19T20:06:30.058Z,3.37
2022-10-19T20:08:57.500Z,3.30
2022-10-19T20:11:28.960Z,3.00
2022-10-19T20:13:56.554Z,3.30
2022-10-19T20:16:29.252Z,3.43
2022-10-19T20:19:01.322Z,3.47
2022-10-19T20:21:28.636Z,4.30
2022-10-19T20:23:55.458Z,3.87
2022-10-19T20:26:24.016Z,3.47
2022-10-19T20:28:52.038Z,4.00
2022-10-19T20:31:20.487Z,3.63
2022-10-19T20:33:47.977Z,3.40
2022-10-19T20:36:16.375Z,3.23
2022-10-19T20:38:54.415Z,3.60
2022-10-19T20:41:23.537Z,3.33
2022-10-19T20:44:11.456Z,3.53
2022-10-19T20:46:41.187Z,4.00
2022-10-19T20:49:08.195Z,4.07
2022-10-19T21:42:28.338Z,5.90
2022-10-19T21:45:06.292Z,6.53
2022-10-19T21:47:42.362Z,6.77
2022-10-19T21:50:09.334Z,7.80
2022-10-19T21:52:36.181Z,7.33
2022-10-19T21:55:03.190Z,7.20
2022-10-19T21:57:30.021Z,7.37
2022-10-19T21:59:56.979Z,7.33
2022-10-19T22:02:25.187Z,6.77
2022-10-19T22:04:51.999Z,7.10
2022-10-19T22:07:18.852Z,7.00
2022-10-19T22:09:46.008Z,7.33
2022-10-19T22:14:44.890Z,7.03
2022-10-19T22:17:11.826Z,7.13
2022-10-19T22:19:38.709Z,6.53
2022-10-19T22:22:05.642Z,6.33
2022-10-19T22:24:34.666Z,6.27
2022-10-19T22:27:01.550Z,6.63
2022-10-19T22:29:28.402Z,7.30
2022-10-19T22:31:55.269Z,7.23
2022-10-19T22:34:22.138Z,7.20
2022-10-19T22:36:50.148Z,7.27
2022-10-19T22:39:17.304Z,8.10
2022-10-19T22:42:21.451Z,7.67
2022-10-19T22:45:27.782Z,7.13
2022-10-19T22:48:31.599Z,7.83
2022-10-19T22:51:35.943Z,8.33
2022-10-19T22:54:04.149Z,7.13
2022-10-19T22:56:31.102Z,6.80
2022-10-19T22:58:59.497Z,7.43
2022-10-19T23:01:26.616Z,7.03
2022-10-19T23:03:55.006Z,7.30
2022-10-19T23:06:22.075Z,6.30
2022-10-19T23:08:49.439Z,6.40
2022-10-19T23:11:16.675Z,10.40
2022-10-19T23:13:45.946Z,11.30
2022-10-19T23:16:12.949Z,11.47
2022-10-19T23:18:41.212Z,12.63
2022-10-19T23:21:11.799Z,11.07
2022-10-19T23:23:40.036Z,11.27
2022-10-19T23:26:10.150Z,11.53
2022-10-19T23:28:39.026Z,11.00
2022-10-19T23:31:09.522Z,11.73
2022-10-19T23:33:37.151Z,12.50
2022-10-19T23:36:09.092Z,11.80
2022-10-19T23:38:37.205Z,12.03
2022-10-19T23:41:04.267Z,11.40
2022-10-19T23:43:31.452Z,11.40
2022-10-19T23:45:58.661Z,12.47
2022-10-19T23:48:26.164Z,11.07
2022-10-19T23:51:00.195Z,12.00
2022-10-19T23:53:28.573Z,7.87
2022-10-19T23:56:01.808Z,6.73
2022-10-19T23:58:29.312Z,6.90
